Time;durP1;ratioP1;P1;durP2;ratioP2;P2;SDS_P1;SDS_P2;PMS_P1;PMS_P2;Temp;Humidity;BMP_temperature;BMP_pressure;BME280_temperature;BME280_humidity;BME280_pressure;Samples;Min_cycle;Max_cycle;Signal;HPM_P1;HPM_P2
2021/10/09 00:01:55;;;;;;;9.88;9.00;;;16.50;89.80;;;;;;4157566;28;20504;-60
2021/10/09 00:04:17;;;;;;;10.40;9.35;;;16.40;89.90;;;;;;4159326;28;20048;-60
2021/10/09 00:06:39;;;;;;;13.40;9.32;;;16.40;89.90;;;;;;4158919;28;20049;-60
2021/10/09 00:09:03;;;;;;;10.25;9.25;;;16.50;90.00;;;;;;4158891;28;20547;-60
2021/10/09 00:11:34;;;;;;;10.57;9.63;;;16.50;90.00;;;;;;4158668;28;20080;-60
2021/10/09 00:13:56;;;;;;;10.95;9.85;;;16.40;90.10;;;;;;4170750;28;20056;-60
2021/10/09 00:16:19;;;;;;;11.10;10.00;;;16.40;90.10;;;;;;4187747;28;20080;-60
2021/10/09 00:18:41;;;;;;;10.77;9.65;;;16.40;90.10;;;;;;4175083;28;20127;-60
2021/10/09 00:21:03;;;;;;;11.02;9.93;;;16.40;90.00;;;;;;4191548;28;20176;-60
2021/10/09 00:23:25;;;;;;;10.15;9.20;;;16.40;90.20;;;;;;4191493;28;20052;-60
2021/10/09 00:25:48;;;;;;;11.00;10.00;;;16.40;90.20;;;;;;4191280;28;20049;-60
2021/10/09 00:28:10;;;;;;;11.77;10.32;;;16.40;90.10;;;;;;4191313;28;20059;-60
2021/10/09 00:30:32;;;;;;;10.77;9.88;;;16.40;90.20;;;;;;4191245;28;20064;-60
2021/10/09 00:32:54;;;;;;;11.63;10.27;;;16.40;90.20;;;;;;4182847;28;20549;-60
2021/10/09 00:35:16;;;;;;;11.45;10.35;;;16.40;90.20;;;;;;4179193;28;20072;-60
2021/10/09 00:37:38;;;;;;;10.52;9.63;;;16.40;90.20;;;;;;4189670;28;20055;-60
2021/10/09 00:40:01;;;;;;;10.95;9.95;;;16.40;90.20;;;;;;4190012;28;20044;-59
2021/10/09 00:42:25;;;;;;;11.68;10.65;;;16.40;90.20;;;;;;4159888;28;20140;-58
2021/10/09 00:44:47;;;;;;;11.23;10.15;;;16.40;90.30;;;;;;4173062;28;20460;-60
2021/10/09 00:47:09;;;;;;;11.60;10.50;;;16.30;90.20;;;;;;4173385;28;20044;-59
2021/10/09 00:49:32;;;;;;;11.98;10.88;;;16.30;90.20;;;;;;4174738;28;20565;-60
2021/10/09 00:51:55;;;;;;;11.82;10.70;;;16.30;90.20;;;;;;4173366;28;20135;-60
2021/10/09 00:54:19;;;;;;;11.80;10.68;;;16.30;90.10;;;;;;4157409;28;20061;-60
2021/10/09 00:56:44;;;;;;;12.65;10.50;;;16.30;90.10;;;;;;4157944;28;20064;-59
2021/10/09 00:59:09;;;;;;;11.93;10.82;;;16.30;90.10;;;;;;4156983;28;20045;-60
2021/10/09 01:01:32;;;;;;;12.77;11.57;;;16.30;90.00;;;;;;4158129;28;20508;-59
2021/10/09 01:03:54;;;;;;;11.55;10.35;;;16.30;90.00;;;;;;4156651;28;20049;-59
2021/10/09 01:06:16;;;;;;;12.18;10.98;;;16.30;89.90;;;;;;4156935;28;20780;-60
2021/10/09 01:08:38;;;;;;;13.18;11.77;;;16.30;89.70;;;;;;4157708;28;20045;-59
2021/10/09 01:11:02;;;;;;;13.45;11.98;;;16.30;89.60;;;;;;4156746;28;20050;-60
2021/10/09 01:13:24;;;;;;;12.35;11.15;;;16.30;89.30;;;;;;4158437;28;20127;-60
2021/10/09 01:15:47;;;;;;;12.43;11.27;;;16.30;89.60;;;;;;4183577;28;20454;-59
2021/10/09 01:18:11;;;;;;;12.15;10.70;;;16.30;89.60;;;;;;4184999;28;20080;-60
2021/10/09 01:20:49;;;;;;;13.05;11.75;;;16.30;90.10;;;;;;4175700;28;20044;-59
2021/10/09 01:23:13;;;;;;;13.85;12.18;;;16.20;89.60;;;;;;4172886;28;20048;-59
2021/10/09 01:25:35;;;;;;;12.82;11.52;;;16.20;89.90;;;;;;4172641;28;20573;-59
2021/10/09 01:27:58;;;;;;;14.25;11.02;;;16.20;89.90;;;;;;4174448;28;20483;-59
2021/10/09 01:30:21;;;;;;;12.98;11.77;;;16.20;90.00;;;;;;4172910;28;20095;-59
2021/10/09 01:32:44;;;;;;;14.45;12.73;;;16.20;90.00;;;;;;4172661;28;20135;-59
2021/10/09 01:35:07;;;;;;;13.40;12.00;;;16.20;89.50;;;;;;4172762;28;20048;-60
2021/10/09 01:37:38;;;;;;;13.65;12.25;;;16.20;89.10;;;;;;4172437;28;20053;-60
2021/10/09 01:40:03;;;;;;;13.13;11.73;;;16.20;88.70;;;;;;4172201;28;20056;-60
2021/10/09 01:42:29;;;;;;;13.23;11.93;;;16.10;89.60;;;;;;4172138;28;20068;-60
2021/10/09 01:44:51;;;;;;;13.73;12.40;;;16.10;89.00;;;;;;4182538;28;20049;-59
2021/10/09 01:47:14;;;;;;;12.13;10.98;;;16.20;89.30;;;;;;4191773;28;20045;-60
2021/10/09 01:49:37;;;;;;;12.85;11.65;;;16.10;89.40;;;;;;4192529;28;20044;-60
2021/10/09 01:52:04;;;;;;;13.40;12.10;;;16.20;89.50;;;;;;4180591;28;20072;-59
2021/10/09 01:54:27;;;;;;;14.23;12.75;;;16.10;89.30;;;;;;4173513;28;20503;-60
2021/10/09 01:56:49;;;;;;;14.23;12.75;;;16.10;89.80;;;;;;4160817;28;20041;-59
2021/10/09 01:59:12;;;;;;;14.48;13.15;;;16.10;90.10;;;;;;4173601;28;20080;-60
2021/10/09 02:01:41;;;;;;;13.85;12.35;;;16.10;90.10;;;;;;4159313;28;20048;-60
2021/10/09 02:04:05;;;;;;;14.25;12.40;;;16.10;89.30;;;;;;4159099;28;20491;-59
2021/10/09 02:06:27;;;;;;;13.77;12.38;;;16.10;88.40;;;;;;4160047;28;20064;-60
2021/10/09 02:08:49;;;;;;;12.80;11.52;;;16.10;89.60;;;;;;4160334;28;20049;-60
2021/10/09 02:11:15;;;;;;;13.27;11.88;;;16.10;89.30;;;;;;4159784;28;20056;-60
2021/10/09 02:13:42;;;;;;;15.68;13.00;;;16.10;90.00;;;;;;4175187;28;20127;-60
2021/10/09 02:16:15;;;;;;;14.50;12.98;;;16.10;90.10;;;;;;4191850;28;20055;-59
2021/10/09 02:18:47;;;;;;;15.45;13.85;;;16.00;90.10;;;;;;4191946;28;20052;-60
2021/10/09 02:24:20;;;;;;;15.60;13.93;;;16.10;90.20;;;;;;4191836;28;20067;-60
2021/10/09 02:26:43;;;;;;;22.90;15.57;;;16.00;90.00;;;;;;4191447;28;20131;-60
2021/10/09 02:29:05;;;;;;;30.65;15.18;;;16.00;89.00;;;;;;4191827;28;20876;-60
2021/10/09 02:31:27;;;;;;;22.90;15.00;;;16.00;89.10;;;;;;4186300;28;20044;-60
2021/10/09 02:33:50;;;;;;;69.55;16.80;;;16.00;89.70;;;;;;4175316;28;20158;-60
2021/10/09 02:36:11;;;;;;;31.25;14.45;;;16.00;89.60;;;;;;4175198;28;20156;-59
2021/10/09 02:38:34;;;;;;;58.30;15.85;;;16.00;90.10;;;;;;4176881;28;20044;-59
2021/10/09 02:40:57;;;;;;;59.35;14.65;;;16.00;89.10;;;;;;4175390;28;20051;-60
2021/10/09 02:43:21;;;;;;;57.85;12.10;;;16.00;88.30;;;;;;4175013;28;20057;-60
2021/10/09 02:45:45;;;;;;;51.70;11.30;;;15.90;87.10;;;;;;4158358;28;20107;-60
2021/10/09 02:48:09;;;;;;;48.10;12.30;;;16.00;88.40;;;;;;4159911;28;20099;-61
2021/10/09 02:50:37;;;;;;;63.53;12.32;;;16.00;89.00;;;;;;4159608;28;20053;-60
2021/10/09 02:52:59;;;;;;;46.83;11.23;;;15.90;89.10;;;;;;4160004;28;20418;-60
2021/10/09 02:55:21;;;;;;;45.00;12.18;;;15.90;89.30;;;;;;4159240;28;20057;-60
2021/10/09 02:57:44;;;;;;;44.03;11.07;;;15.90;88.90;;;;;;4158637;28;20041;-60
2021/10/09 03:00:11;;;;;;;42.00;11.25;;;15.90;89.80;;;;;;4182881;28;20145;-59
2021/10/09 03:02:34;;;;;;;58.47;11.75;;;15.90;88.60;;;;;;4174869;28;20075;-60
2021/10/09 03:04:57;;;;;;;42.03;11.48;;;15.90;89.00;;;;;;4189346;28;20530;-60
2021/10/09 03:07:20;;;;;;;48.05;11.68;;;15.80;88.30;;;;;;4190902;28;20451;-60
2021/10/09 03:09:42;;;;;;;29.70;10.63;;;15.80;89.10;;;;;;4191373;28;20118;-60
2021/10/09 03:12:05;;;;;;;26.77;10.77;;;15.80;89.80;;;;;;4175742;28;20091;-60
2021/10/09 03:14:29;;;;;;;33.63;11.48;;;15.80;90.00;;;;;;4174686;28;20514;-60
2021/10/09 03:16:52;;;;;;;36.85;10.38;;;15.90;89.80;;;;;;4174721;28;20434;-61
2021/10/09 03:19:14;;;;;;;55.35;11.57;;;15.90;90.00;;;;;;4174533;28;20736;-60
2021/10/09 03:21:36;;;;;;;32.85;11.43;;;15.90;89.80;;;;;;4174441;28;20055;-61
2021/10/09 03:23:58;;;;;;;19.83;10.25;;;15.90;88.30;;;;;;4184784;28;20074;-60
2021/10/09 03:26:21;;;;;;;39.70;12.18;;;15.90;89.30;;;;;;4190620;28;20045;-60
2021/10/09 03:28:43;;;;;;;36.13;11.60;;;15.80;88.80;;;;;;4191780;28;20059;-60
2021/10/09 03:31:05;;;;;;;40.60;11.15;;;15.80;88.00;;;;;;4174552;28;20046;-59
2021/10/09 03:33:32;;;;;;;49.75;12.95;;;15.80;88.10;;;;;;4181237;28;20415;-60
2021/10/09 03:35:54;;;;;;;36.65;11.95;;;15.80;89.00;;;;;;4157826;28;20126;-59
2021/10/09 03:38:16;;;;;;;31.15;11.60;;;15.80;88.50;;;;;;4157768;28;20049;-60
2021/10/09 03:40:41;;;;;;;25.67;12.25;;;15.80;89.70;;;;;;4159031;28;20049;-60
2021/10/09 03:43:06;;;;;;;32.20;12.43;;;15.80;90.00;;;;;;4163689;28;20049;-61
2021/10/09 03:45:31;;;;;;;33.05;12.45;;;15.80;88.90;;;;;;4174066;28;20586;-60
2021/10/09 03:48:17;;;;;;;21.60;11.27;;;15.80;89.40;;;;;;4173907;28;20045;-59
2021/10/09 03:53:20;;;;;;;35.83;13.90;;;15.80;90.10;;;;;;4173792;28;20055;-60
2021/10/09 03:55:42;;;;;;;36.80;12.70;;;15.80;90.00;;;;;;4175477;28;20045;-60
2021/10/09 03:58:04;;;;;;;19.05;12.32;;;15.80;90.10;;;;;;4173843;28;20522;-60
2021/10/09 04:00:29;;;;;;;38.13;15.00;;;15.80;90.40;;;;;;4173834;28;20140;-60
2021/10/09 04:02:55;;;;;;;31.02;15.00;;;15.80;90.80;;;;;;4176080;28;20055;-60
2021/10/09 04:05:17;;;;;;;37.20;14.05;;;15.80;90.80;;;;;;4174056;28;20053;-60
2021/10/09 04:07:43;;;;;;;43.20;15.77;;;15.80;90.60;;;;;;4173367;28;20092;-60
2021/10/09 04:10:10;;;;;;;37.05;14.88;;;15.70;90.00;;;;;;4173063;28;20415;-60
2021/10/09 04:12:32;;;;;;;32.58;14.07;;;15.80;90.20;;;;;;4175229;28;20051;-60
2021/10/09 04:14:54;;;;;;;19.48;14.52;;;15.80;90.50;;;;;;4173695;28;20134;-60
2021/10/09 04:17:18;;;;;;;34.03;15.75;;;15.70;90.40;;;;;;4173561;28;20474;-60
2021/10/09 04:19:41;;;;;;;28.75;17.40;;;15.70;90.40;;;;;;4173519;28;20106;-60
2021/10/09 04:22:03;;;;;;;20.95;16.00;;;15.70;90.10;;;;;;4173761;28;20041;-60
2021/10/09 04:24:27;;;;;;;21.38;16.38;;;15.70;90.20;;;;;;4157132;28;20080;-60
2021/10/09 04:26:51;;;;;;;18.13;16.23;;;15.70;90.40;;;;;;4156323;28;20041;-60
2021/10/09 04:29:15;;;;;;;19.25;15.57;;;15.70;90.60;;;;;;4163875;28;20055;-60
2021/10/09 04:31:37;;;;;;;20.10;16.58;;;15.70;90.70;;;;;;4156897;28;20053;-59
2021/10/09 04:34:00;;;;;;;18.58;15.63;;;15.70;90.70;;;;;;4157127;28;20805;-59
2021/10/09 04:36:22;;;;;;;25.42;18.52;;;15.70;90.60;;;;;;4156946;28;20049;-59
2021/10/09 04:38:44;;;;;;;25.98;18.10;;;15.70;90.30;;;;;;4158268;28;20045;-59
2021/10/09 04:41:08;;;;;;;24.35;18.90;;;15.70;90.00;;;;;;4156752;28;20052;-60
2021/10/09 04:43:32;;;;;;;20.23;17.42;;;15.70;90.00;;;;;;4183466;28;20049;-60
2021/10/09 04:45:53;;;;;;;21.63;18.38;;;15.70;90.40;;;;;;4189715;28;20414;-60
2021/10/09 04:48:16;;;;;;;25.13;19.45;;;15.70;90.60;;;;;;4189787;28;20045;-60
2021/10/09 04:50:38;;;;;;;24.48;18.48;;;15.70;90.50;;;;;;4176341;28;20132;-59
2021/10/09 04:53:03;;;;;;;22.98;19.23;;;15.70;90.50;;;;;;4173457;28;20144;-60
2021/10/09 04:55:25;;;;;;;26.70;21.10;;;15.70;90.20;;;;;;4173129;28;20056;-60
2021/10/09 04:57:48;;;;;;;27.77;20.52;;;15.70;90.40;;;;;;4173397;28;20083;-59
2021/10/09 05:00:13;;;;;;;27.02;19.30;;;15.70;90.30;;;;;;4172826;28;20049;-59
2021/10/09 05:02:35;;;;;;;25.10;20.55;;;15.70;90.60;;;;;;4180813;28;20044;-59
2021/10/09 05:04:58;;;;;;;25.30;19.77;;;15.70;90.60;;;;;;4189453;28;20040;-59
2021/10/09 05:07:20;;;;;;;28.10;21.33;;;15.70;90.50;;;;;;4189236;28;20055;-59
2021/10/09 05:09:43;;;;;;;25.98;21.80;;;15.70;90.30;;;;;;4182095;28;20049;-60
2021/10/09 05:12:07;;;;;;;27.90;20.70;;;15.70;90.20;;;;;;4173162;28;20146;-59
2021/10/09 05:14:33;;;;;;;26.33;20.67;;;15.70;90.30;;;;;;4187121;28;20098;-60
2021/10/09 05:16:56;;;;;;;27.98;22.23;;;15.70;90.00;;;;;;4174361;28;20411;-60
2021/10/09 05:19:19;;;;;;;27.25;21.05;;;15.70;89.40;;;;;;4176017;28;20766;-61
2021/10/09 05:21:41;;;;;;;27.63;21.92;;;15.70;90.00;;;;;;4178373;28;20091;-61
2021/10/09 05:24:04;;;;;;;26.20;19.92;;;15.70;90.40;;;;;;4193077;28;20048;-60
2021/10/09 05:26:27;;;;;;;28.63;21.15;;;15.70;90.10;;;;;;4192998;28;20049;-60
2021/10/09 05:28:50;;;;;;;27.70;23.15;;;15.70;90.90;;;;;;4190519;28;20082;-59
2021/10/09 05:31:24;;;;;;;28.13;21.60;;;15.70;90.00;;;;;;4176415;28;20045;-60
2021/10/09 05:33:48;;;;;;;;;;;15.70;90.40;;;;;;4176493;28;20080;-60
2021/10/09 05:36:11;;;;;;;27.02;20.02;;;15.70;90.50;;;;;;4176127;28;19921;-60
2021/10/09 05:38:35;;;;;;;28.60;21.70;;;15.70;90.60;;;;;;4176269;28;20107;-60
2021/10/09 05:40:58;;;;;;;25.10;20.05;;;15.60;90.30;;;;;;4176114;28;20068;-60
2021/10/09 05:43:26;;;;;;;30.95;21.75;;;15.70;90.10;;;;;;4176746;28;20483;-60
2021/10/09 05:45:47;;;;;;;26.95;20.75;;;15.70;90.30;;;;;;4175790;28;20057;-60
2021/10/09 05:48:12;;;;;;;28.77;21.02;;;15.60;90.10;;;;;;4177072;28;20064;-58
2021/10/09 05:50:41;;;;;;;30.15;21.58;;;15.60;89.60;;;;;;4159150;28;20133;-60
2021/10/09 05:53:14;;;;;;;31.10;22.85;;;15.60;89.80;;;;;;4160391;28;20050;-60
2021/10/09 05:55:39;;;;;;;28.40;20.38;;;15.60;88.80;;;;;;4159046;28;20049;-60
2021/10/09 05:58:07;;;;;;;29.40;21.33;;;15.60;89.70;;;;;;4159556;28;20148;-59
2021/10/09 06:59:31;;;;;;;28.42;20.23;;;15.60;88.00;;;;;;4172337;28;20072;-59
2021/10/09 07:01:54;;;;;;;32.20;23.77;;;15.60;89.00;;;;;;4158361;28;20049;-59
2021/10/09 07:04:16;;;;;;;32.75;22.80;;;15.60;90.50;;;;;;4158492;28;20037;-59
2021/10/09 07:06:42;;;;;;;32.00;24.88;;;15.60;91.10;;;;;;4167970;28;20110;-59
2021/10/09 07:09:20;;;;;;;30.77;21.85;;;15.70;90.20;;;;;;4158174;28;20045;-59
2021/10/09 07:11:49;;;;;;;32.60;25.50;;;15.70;90.70;;;;;;4158720;28;20053;-59
2021/10/09 07:14:11;;;;;;;31.70;24.13;;;15.60;89.50;;;;;;4158334;28;20488;-59
2021/10/09 07:16:35;;;;;;;36.45;25.38;;;15.60;89.80;;;;;;4158000;28;20123;-59
2021/10/09 07:18:57;;;;;;;36.45;23.35;;;15.60;90.20;;;;;;4190856;28;20071;-59
2021/10/09 07:21:21;;;;;;;36.00;24.35;;;15.60;88.50;;;;;;4190692;28;20060;-59
2021/10/09 07:23:45;;;;;;;33.20;23.25;;;15.60;90.00;;;;;;4179486;28;20076;-59
2021/10/09 07:26:08;;;;;;;30.48;21.27;;;15.60;90.70;;;;;;4174180;28;20049;-59
2021/10/09 07:28:30;;;;;;;31.80;24.95;;;15.60;90.70;;;;;;4175923;28;20488;-58
2021/10/09 07:30:52;;;;;;;36.30;25.33;;;15.60;90.70;;;;;;4174498;28;20688;-59
2021/10/09 07:33:14;;;;;;;32.72;24.08;;;15.60;90.70;;;;;;4175804;28;20045;-59
2021/10/09 07:35:36;;;;;;;36.45;23.90;;;15.60;90.70;;;;;;4159423;28;20045;-59
2021/10/09 07:37:58;;;;;;;31.80;24.98;;;15.60;90.50;;;;;;4159380;28;20131;-59
2021/10/09 07:40:22;;;;;;;34.13;24.00;;;15.60;90.80;;;;;;4158823;28;20080;-60
2021/10/09 07:42:45;;;;;;;36.20;25.10;;;15.60;90.40;;;;;;4171496;28;20072;-59
2021/10/09 07:45:08;;;;;;;31.65;23.92;;;15.60;90.50;;;;;;4159471;28;20103;-59
2021/10/09 07:47:34;;;;;;;29.20;23.10;;;15.60;90.70;;;;;;4168862;28;20129;-59
2021/10/09 07:49:56;;;;;;;37.15;26.58;;;15.60;90.70;;;;;;4188474;28;20044;-59
2021/10/09 07:52:18;;;;;;;31.92;24.02;;;15.60;90.40;;;;;;4175584;28;20052;-60
2021/10/09 07:54:40;;;;;;;34.65;25.95;;;15.60;90.20;;;;;;4174985;28;20088;-57
2021/10/09 07:57:05;;;;;;;33.88;26.55;;;15.60;90.20;;;;;;4175203;28;20052;-60
2021/10/09 07:59:27;;;;;;;35.78;26.55;;;15.60;90.70;;;;;;4175550;28;20098;-59
2021/10/09 08:01:50;;;;;;;33.72;25.45;;;15.70;90.70;;;;;;4175294;28;20045;-59
2021/10/09 08:04:15;;;;;;;34.88;26.98;;;15.70;90.80;;;;;;4175142;28;20056;-59
2021/10/09 08:06:37;;;;;;;32.80;24.10;;;15.70;90.50;;;;;;4175439;28;20411;-59
2021/10/09 08:08:59;;;;;;;34.85;26.95;;;15.70;90.50;;;;;;4188763;28;20047;-58
2021/10/09 08:11:21;;;;;;;37.08;27.98;;;15.70;90.60;;;;;;4191744;28;20040;-58
2021/10/09 08:13:45;;;;;;;34.60;27.05;;;15.70;90.50;;;;;;4191843;28;20105;-59
2021/10/09 08:16:07;;;;;;;34.17;25.40;;;15.70;90.20;;;;;;4172413;28;20490;-59
2021/10/09 08:18:29;;;;;;;38.35;26.33;;;15.70;90.50;;;;;;4171162;28;20095;-59
2021/10/09 08:20:58;;;;;;;32.65;24.30;;;15.70;90.40;;;;;;4175301;28;20075;-59
2021/10/09 08:23:23;;;;;;;31.27;24.35;;;15.70;90.30;;;;;;4170108;28;20140;-59
2021/10/09 08:26:03;;;;;;;33.72;25.27;;;15.70;90.10;;;;;;4158517;28;20472;-59
2021/10/09 08:36:35;;;;;;;32.55;25.88;;;15.70;90.00;;;;;;4158132;28;20146;-60
2021/10/09 08:38:56;;;;;;;28.53;22.47;;;15.70;90.00;;;;;;4165425;28;20041;-60
2021/10/09 08:41:37;;;;;;;33.63;23.60;;;15.70;89.70;;;;;;4174508;28;20432;-59
2021/10/09 08:44:00;;;;;;;31.05;23.92;;;15.70;89.60;;;;;;4174812;28;20125;-61
2021/10/09 08:46:23;;;;;;;35.40;24.40;;;15.70;90.00;;;;;;4184194;28;20044;-59
2021/10/09 08:48:47;;;;;;;34.35;23.85;;;15.70;90.20;;;;;;4188808;28;20418;-59
2021/10/09 08:51:10;;;;;;;30.65;23.85;;;15.70;90.20;;;;;;4189677;28;20051;-59
2021/10/09 08:53:36;;;;;;;33.13;23.25;;;15.80;90.40;;;;;;4190059;28;20080;-59
2021/10/09 08:55:59;;;;;;;29.73;22.08;;;15.80;90.30;;;;;;4175022;28;20033;-59
2021/10/09 08:58:32;;;;;;;31.02;22.30;;;15.80;90.50;;;;;;4174678;28;20547;-59
2021/10/09 09:01:05;;;;;;;29.58;22.92;;;15.90;90.30;;;;;;4173761;28;20132;-59
2021/10/09 09:03:56;;;;;;;34.05;24.10;;;15.90;90.10;;;;;;4174705;28;20053;-59
2021/10/09 09:06:38;;;;;;;30.08;23.05;;;16.00;89.60;;;;;;4174345;28;20069;-59
2021/10/09 09:31:08;;;;;;;26.20;22.35;;;16.30;86.60;;;;;;4188547;28;20053;-60
2021/10/09 09:33:52;;;;;;;30.48;23.90;;;16.30;87.90;;;;;;4188766;28;20048;-60
2021/10/09 09:36:29;;;;;;;29.38;23.77;;;16.30;87.40;;;;;;4188564;28;20122;-60
2021/10/09 09:38:56;;;;;;;33.55;25.25;;;16.30;87.60;;;;;;4188325;28;20056;-60
2021/10/09 09:41:21;;;;;;;33.30;24.33;;;16.30;84.40;;;;;;4189059;28;20045;-61
2021/10/09 09:43:56;;;;;;;29.05;23.50;;;16.40;84.60;;;;;;4187209;28;20048;-59
2021/10/09 09:46:21;;;;;;;33.40;22.85;;;16.40;83.60;;;;;;4188421;28;20045;-60
2021/10/09 09:48:44;;;;;;;28.85;23.42;;;16.40;86.00;;;;;;4188313;28;20068;-59
2021/10/09 09:51:07;;;;;;;32.03;23.15;;;16.40;86.10;;;;;;4188306;28;20102;-60
2021/10/09 09:53:29;;;;;;;32.67;21.85;;;16.40;85.70;;;;;;4188635;28;20048;-59
2021/10/09 09:55:52;;;;;;;29.42;21.60;;;16.40;87.00;;;;;;4188494;28;20461;-60
2021/10/09 09:58:16;;;;;;;26.35;21.40;;;16.50;87.10;;;;;;4188347;28;20171;-60
2021/10/09 10:00:40;;;;;;;29.02;21.10;;;16.50;85.50;;;;;;4188623;28;20049;-60
2021/10/09 10:03:05;;;;;;;28.63;21.33;;;16.50;86.40;;;;;;4171983;28;20054;-60
2021/10/09 10:05:28;;;;;;;23.90;18.67;;;16.50;85.90;;;;;;4172136;28;20051;-60
2021/10/09 10:07:51;;;;;;;25.27;18.65;;;16.50;85.40;;;;;;4155501;28;20526;-60
2021/10/09 10:10:14;;;;;;;21.45;17.92;;;16.50;85.80;;;;;;4158884;28;20075;-60
2021/10/09 10:12:38;;;;;;;22.30;18.45;;;16.50;86.20;;;;;;4198448;28;20040;-60
2021/10/09 10:15:00;;;;;;;23.85;18.13;;;16.50;86.60;;;;;;4195030;28;20445;-60
2021/10/09 10:17:44;;;;;;;21.75;17.65;;;16.50;85.10;;;;;;4202128;28;20048;-60
2021/10/09 10:20:09;;;;;;;18.45;16.42;;;16.50;83.50;;;;;;4204825;28;20051;-60
2021/10/09 10:22:59;;;;;;;18.98;16.25;;;16.50;84.90;;;;;;4195567;28;20056;-59
2021/10/09 10:25:39;;;;;;;24.33;16.08;;;16.60;83.60;;;;;;4193519;28;20550;-60
2021/10/09 10:28:03;;;;;;;18.73;15.68;;;16.60;84.10;;;;;;4158932;28;20758;-60
2021/10/09 10:30:28;;;;;;;17.70;15.40;;;16.60;82.30;;;;;;4160376;28;20545;-60
2021/10/09 10:33:29;;;;;;;21.02;15.48;;;16.60;84.00;;;;;;4160637;28;20069;-59
2021/10/09 10:35:53;;;;;;;19.80;14.48;;;16.60;83.50;;;;;;4158048;28;20699;-60
2021/10/09 10:38:46;;;;;;;18.30;14.30;;;16.60;84.40;;;;;;4176883;28;20495;-58
2021/10/09 10:41:11;;;;;;;19.17;13.93;;;16.70;83.10;;;;;;4176988;28;20510;-59
2021/10/09 10:43:44;;;;;;;15.50;13.68;;;16.70;84.60;;;;;;4159806;28;20547;-60
2021/10/09 10:46:33;;;;;;;16.10;12.95;;;16.70;83.80;;;;;;4165483;28;20040;-59
2021/10/09 10:48:59;;;;;;;16.17;12.77;;;16.80;83.70;;;;;;4168512;28;20400;-58
2021/10/09 10:51:41;;;;;;;18.15;12.73;;;16.80;83.50;;;;;;4176897;28;20048;-57
2021/10/09 10:54:12;;;;;;;18.30;13.15;;;16.80;81.20;;;;;;4186924;28;20048;-59
2021/10/09 10:56:36;;;;;;;19.45;13.10;;;16.80;81.90;;;;;;4192905;28;20056;-60
2021/10/09 10:59:28;;;;;;;16.02;11.93;;;16.90;84.30;;;;;;4193182;28;20052;-59
2021/10/09 11:02:08;;;;;;;15.35;12.10;;;16.90;80.70;;;;;;4193209;28;20052;-59
2021/10/09 11:04:36;;;;;;;19.73;12.77;;;17.00;79.70;;;;;;4192104;28;20052;-59
2021/10/09 11:06:59;;;;;;;17.38;12.35;;;17.00;79.10;;;;;;4179470;28;20048;-60
2021/10/09 11:09:24;;;;;;;16.33;12.55;;;17.00;77.50;;;;;;4175149;28;20056;-59
2021/10/09 11:11:46;;;;;;;16.63;12.23;;;17.00;78.60;;;;;;4178495;28;20427;-59
2021/10/09 11:14:08;;;;;;;13.40;11.40;;;17.10;81.50;;;;;;4182801;28;20057;-59
2021/10/09 11:16:30;;;;;;;12.65;10.80;;;17.10;80.80;;;;;;4175546;28;20139;-59
2021/10/09 11:18:54;;;;;;;14.75;11.77;;;17.10;81.80;;;;;;4175987;28;20052;-57
2021/10/09 11:21:18;;;;;;;15.70;12.32;;;17.20;81.00;;;;;;4178051;28;20040;-60
2021/10/09 11:23:48;;;;;;;15.27;12.20;;;17.20;79.70;;;;;;4192622;28;20144;-55
2021/10/09 11:26:10;;;;;;;12.90;11.10;;;17.20;79.50;;;;;;4192404;28;20059;-59
2021/10/09 11:28:33;;;;;;;13.65;10.80;;;17.30;80.40;;;;;;4192477;28;20048;-59
2021/10/09 11:30:55;;;;;;;16.48;12.77;;;17.30;80.90;;;;;;4192293;28;20753;-59
2021/10/09 11:33:23;;;;;;;22.02;12.18;;;17.30;81.30;;;;;;4185465;28;20052;-59
2021/10/09 11:35:44;;;;;;;13.00;10.10;;;17.40;80.40;;;;;;4192262;28;20059;-60
2021/10/09 11:38:20;;;;;;;17.45;10.05;;;17.40;80.30;;;;;;4192527;28;20056;-60
2021/10/09 11:40:45;;;;;;;17.40;10.60;;;17.40;80.90;;;;;;4192298;28;20052;-59
2021/10/09 11:43:17;;;;;;;15.05;10.10;;;17.40;79.50;;;;;;4192208;28;20063;-59
2021/10/09 11:45:46;;;;;;;12.38;9.90;;;17.50;80.30;;;;;;4192207;28;20405;-60
2021/10/09 11:53:40;;;;;;;13.38;9.75;;;17.60;79.30;;;;;;4175423;28;20052;-60
2021/10/09 11:56:04;;;;;;;11.95;9.73;;;17.60;79.80;;;;;;4176019;28;20049;-59
2021/10/09 11:58:27;;;;;;;14.27;10.13;;;17.60;78.90;;;;;;4175672;28;20059;-59
2021/10/09 12:00:49;;;;;;;11.02;9.25;;;17.60;79.10;;;;;;4175475;28;20057;-60
2021/10/09 12:03:33;;;;;;;12.70;8.50;;;17.60;77.50;;;;;;4182582;28;20139;-60
2021/10/09 12:05:57;;;;;;;11.77;9.75;;;17.70;77.40;;;;;;4191906;28;20041;-60
2021/10/09 12:08:25;;;;;;;13.07;9.32;;;17.70;79.00;;;;;;4191752;28;20048;-59
2021/10/09 12:11:10;;;;;;;17.13;9.63;;;17.70;79.50;;;;;;4191773;28;20056;-60
2021/10/09 12:13:32;;;;;;;13.18;8.77;;;17.70;78.40;;;;;;4191852;28;20063;-60
2021/10/09 12:16:08;;;;;;;10.02;8.93;;;17.70;78.70;;;;;;4191871;28;20048;-59
2021/10/09 12:18:48;;;;;;;13.70;9.70;;;17.80;77.40;;;;;;4191665;28;20048;-60
2021/10/09 12:21:11;;;;;;;10.93;8.75;;;17.80;74.80;;;;;;4191923;28;20131;-59
2021/10/09 12:23:39;;;;;;;15.15;8.93;;;17.80;77.80;;;;;;4191359;28;20512;-59
2021/10/09 12:26:12;;;;;;;14.05;9.02;;;17.90;73.40;;;;;;4191735;28;20052;-60
2021/10/09 12:28:34;;;;;;;10.88;8.70;;;17.90;74.70;;;;;;4158769;28;20080;-60
2021/10/09 12:30:56;;;;;;;9.95;8.25;;;17.90;75.70;;;;;;4158574;28;20136;-59
2021/10/09 12:33:33;;;;;;;10.50;8.48;;;17.90;71.40;;;;;;4166732;28;20522;-59
2021/10/09 12:35:58;;;;;;;9.60;8.43;;;18.00;72.30;;;;;;4191548;28;20168;-58
2021/10/09 12:38:20;;;;;;;10.77;8.27;;;18.00;75.60;;;;;;4191322;28;20056;-60
2021/10/09 12:40:44;;;;;;;10.23;7.97;;;18.00;78.30;;;;;;4174990;28;20098;-59
2021/10/09 12:43:12;;;;;;;17.10;8.32;;;18.00;76.50;;;;;;4175070;28;20048;-60
2021/10/09 12:45:34;;;;;;;14.18;8.00;;;18.00;73.20;;;;;;4174983;28;20037;-60
2021/10/09 12:47:58;;;;;;;10.52;7.95;;;18.00;75.40;;;;;;4174831;28;20045;-60
2021/10/09 12:50:20;;;;;;;11.25;8.00;;;18.10;75.30;;;;;;4158535;28;20056;-58
2021/10/09 12:52:45;;;;;;;11.80;8.02;;;18.10;74.40;;;;;;4171878;28;20064;-59
2021/10/09 12:55:08;;;;;;;12.68;8.00;;;18.10;77.10;;;;;;4174934;28;20041;-59
2021/10/09 12:57:30;;;;;;;11.00;7.97;;;18.10;73.70;;;;;;4188634;28;20127;-60
2021/10/09 12:59:53;;;;;;;8.50;7.03;;;18.20;72.50;;;;;;4191479;28;20137;-59
2021/10/09 13:02:15;;;;;;;16.70;8.52;;;18.20;74.90;;;;;;4191517;28;20047;-61
2021/10/09 13:04:39;;;;;;;11.25;9.00;;;18.20;74.70;;;;;;4158257;28;20041;-60
2021/10/09 13:07:01;;;;;;;9.32;7.22;;;18.20;72.40;;;;;;4167927;28;20498;-60
2021/10/09 13:09:23;;;;;;;15.27;8.07;;;18.30;68.90;;;;;;4174779;28;20098;-59
2021/10/09 13:11:49;;;;;;;11.68;8.18;;;18.20;72.50;;;;;;4174975;28;20530;-60
2021/10/09 13:14:11;;;;;;;12.32;7.90;;;18.30;73.00;;;;;;4174504;28;20045;-60
2021/10/09 13:16:34;;;;;;;8.10;7.00;;;18.30;75.00;;;;;;4174727;28;20087;-58
2021/10/09 13:18:58;;;;;;;9.05;7.03;;;18.30;74.30;;;;;;4174625;28;20518;-60
2021/10/09 13:21:21;;;;;;;9.05;7.60;;;18.40;75.70;;;;;;4174849;28;20124;-60
2021/10/09 13:23:43;;;;;;;14.38;7.75;;;18.40;76.40;;;;;;4173411;28;20072;-60
2021/10/09 13:26:06;;;;;;;8.70;7.80;;;18.40;76.40;;;;;;4167113;28;20056;-60
2021/10/09 13:28:28;;;;;;;8.32;7.50;;;18.40;70.80;;;;;;4158289;28;20045;-60
2021/10/09 13:30:51;;;;;;;8.65;7.63;;;18.40;72.00;;;;;;4158114;28;20060;-60
2021/10/09 13:33:14;;;;;;;7.13;6.43;;;18.40;72.00;;;;;;4166458;28;20077;-60
2021/10/09 13:35:37;;;;;;;9.52;7.28;;;18.40;73.10;;;;;;4172949;28;20114;-60
2021/10/09 13:38:00;;;;;;;10.30;6.85;;;18.50;76.70;;;;;;4174420;28;20056;-60
2021/10/09 13:40:23;;;;;;;14.55;7.30;;;18.50;71.80;;;;;;4174658;28;20076;-60
2021/10/09 13:42:46;;;;;;;10.30;7.40;;;18.50;74.00;;;;;;4174427;28;20049;-59
2021/10/09 13:45:09;;;;;;;9.93;7.30;;;18.50;72.80;;;;;;4157901;28;20484;-60
2021/10/09 13:47:31;;;;;;;15.05;8.23;;;18.50;71.60;;;;;;4157977;28;20478;-59
2021/10/09 13:49:54;;;;;;;12.23;8.07;;;18.60;74.20;;;;;;4157948;28;20107;-59
2021/10/09 13:52:16;;;;;;;10.90;7.82;;;18.60;72.70;;;;;;4158052;28;20049;-60
2021/10/09 13:54:42;;;;;;;10.88;7.35;;;18.60;72.70;;;;;;4157730;28;20496;-59
2021/10/09 13:57:04;;;;;;;9.00;7.28;;;18.60;71.50;;;;;;4158596;28;20103;-60
2021/10/09 13:59:26;;;;;;;9.02;7.30;;;18.70;73.20;;;;;;4160195;28;20480;-60
2021/10/09 14:01:49;;;;;;;10.63;6.85;;;18.70;69.90;;;;;;4159587;28;20053;-60